< < Back
Terminal Aerodrome Forecast


Current Version              Previous Versions:   1  2  3  4  5  6  7  8  9  

Terminal Aerodrome Forecast

733
FTUS42 KJAX 291120
TAFSSI
TAF
KSSI 291120Z 2912/3012 00000KT P6SM SCT250
     FM291500 05006KT P6SM SCT250
     FM291800 14007KT P6SM SCT035 BKN250
     FM300000 20005KT P6SM BKN250=



Latest METAR

222
SAUS70 KWBC 300600 RRK
MTRSSI
METAR KSSI 300553Z AUTO 23006KT 10SM CLR 10/08 A3017 RMK AO2 SLP215
T01000078 10133 20100 58007


USA.gov is the U.S. government's official web portal to all federal, state and local government web resources and services.